Brusett, Montana
Current Conditions -  °F | °C
As of 1:53 AM on Monday 24 Nov 2014 (Local Time) from KGGW Reporting Station
Overcast Overcast  
Wind Chill:   Ceiling: 6500
Heat Index: 20°   Visibility: 10mi
Dew Point: 15°   Wind: 12mph
Humidity: 81%   Direction: 90°E
Pressure: 29.79"   Gusts: NA
Location:  47.43°N, 107.27°W
Report Text: KGGW 240853Z AUTO 09010KT 10SM OVC065 M07/M09 A2979 RMK AO2 SLP121 T10671094 58002
Loading
Personal Weather Stations






























Interactive Weather Map New forecast layout! Learn more

10-Day Weather Forecast

Advertisements
Track Severe Weather on mobile